Time;durP1;ratioP1;P1;durP2;ratioP2;P2;SDS_P1;SDS_P2;PMS_P1;PMS_P2;Temp;Humidity;BMP_temperature;BMP_pressure;BME280_temperature;BME280_humidity;BME280_pressure;Samples;Min_cycle;Max_cycle;Signal;HPM_P1;HPM_P2
2024/03/16 00:00:07;;;;;;;1.43;0.67;;;13.10;99.90;;;;;;4979858;28;20460;-47
2024/03/16 00:02:35;;;;;;;1.20;0.80;;;13.10;99.90;;;;;;4988598;28;20476;-47
2024/03/16 00:05:03;;;;;;;1.65;0.50;;;13.10;99.90;;;;;;4948193;28;20490;-48
2024/03/16 00:07:32;;;;;;;2.90;0.93;;;13.10;99.90;;;;;;4970842;28;20865;-47
2024/03/16 00:10:00;;;;;;;1.60;0.57;;;13.10;99.90;;;;;;4962994;28;20500;-47
2024/03/16 00:12:29;;;;;;;1.60;0.80;;;13.10;99.90;;;;;;4974719;28;20898;-47
2024/03/16 00:14:57;;;;;;;1.27;0.60;;;13.10;99.90;;;;;;4962491;28;20434;-46
2024/03/16 00:17:25;;;;;;;1.03;0.43;;;13.10;99.90;;;;;;4972099;28;20436;-47
2024/03/16 00:19:53;;;;;;;0.90;0.50;;;13.10;99.90;;;;;;4961333;28;20452;-46
2024/03/16 00:22:21;;;;;;;0.90;0.40;;;13.10;99.90;;;;;;4971816;28;20714;-50
2024/03/16 00:24:50;;;;;;;1.53;1.00;;;13.10;99.90;;;;;;4962963;28;20447;-49
2024/03/16 00:27:19;;;;;;;1.47;0.80;;;13.10;99.90;;;;;;4984124;28;20843;-47
2024/03/16 00:29:47;;;;;;;1.47;0.67;;;13.10;99.90;;;;;;4982552;28;20442;-46
2024/03/16 00:32:16;;;;;;;1.47;1.00;;;13.10;99.90;;;;;;4966787;28;20427;-47
2024/03/16 00:34:44;;;;;;;1.20;0.90;;;13.10;99.90;;;;;;4963954;28;20437;-47
2024/03/16 00:37:13;;;;;;;1.47;0.70;;;13.10;99.90;;;;;;4969270;28;20442;-47
2024/03/16 00:39:41;;;;;;;1.20;0.90;;;13.10;99.90;;;;;;4985146;28;20460;-47
2024/03/16 00:42:10;;;;;;;1.13;0.60;;;13.10;99.90;;;;;;4974427;28;20454;-47
2024/03/16 00:44:38;;;;;;;1.40;0.63;;;13.10;99.90;;;;;;4970565;28;20943;-46
2024/03/16 00:47:06;;;;;;;1.63;0.77;;;13.10;99.90;;;;;;4963900;28;20463;-49
2024/03/16 00:49:34;;;;;;;1.40;0.60;;;13.10;99.90;;;;;;4977602;28;20973;-48
2024/03/16 00:52:03;;;;;;;2.20;0.60;;;13.10;99.90;;;;;;4963825;28;20450;-47
2024/03/16 00:54:31;;;;;;;1.90;0.90;;;13.10;99.90;;;;;;4969946;28;20471;-47
2024/03/16 00:56:59;;;;;;;1.27;0.70;;;13.10;99.90;;;;;;4963257;28;20463;-46
2024/03/16 00:59:28;;;;;;;1.10;0.67;;;13.10;99.90;;;;;;4970086;28;20448;-48
2024/03/16 01:01:57;;;;;;;1.50;0.63;;;13.10;99.90;;;;;;4963768;28;20440;-47
2024/03/16 01:04:25;;;;;;;1.00;0.50;;;13.00;99.90;;;;;;4970004;28;20444;-47
2024/03/16 01:06:53;;;;;;;1.43;0.67;;;13.10;99.90;;;;;;4969228;28;20458;-46
2024/03/16 01:09:22;;;;;;;1.20;0.60;;;13.00;99.90;;;;;;4989093;28;20489;-46
2024/03/16 01:11:50;;;;;;;2.30;0.67;;;13.00;99.90;;;;;;4984819;28;20450;-47
2024/03/16 01:14:18;;;;;;;1.97;0.70;;;13.00;99.90;;;;;;4968350;28;21165;-47
2024/03/16 01:16:47;;;;;;;1.57;0.80;;;13.00;99.90;;;;;;4970904;28;20515;-48
2024/03/16 01:19:15;;;;;;;1.87;0.73;;;13.00;99.90;;;;;;4963306;28;20560;-48
2024/03/16 01:21:43;;;;;;;1.83;0.60;;;13.00;99.90;;;;;;4968672;28;20452;-47
2024/03/16 01:24:11;;;;;;;1.80;0.93;;;13.00;99.90;;;;;;4965834;28;20439;-46
2024/03/16 01:26:39;;;;;;;1.47;0.63;;;13.00;99.90;;;;;;4977204;28;20517;-47
2024/03/16 01:29:10;;;;;;;1.20;0.50;;;13.00;99.90;;;;;;4965392;28;20456;-47
2024/03/16 01:31:38;;;;;;;3.13;0.60;;;13.00;99.90;;;;;;4973915;28;20956;-47
2024/03/16 01:34:07;;;;;;;1.53;0.70;;;13.00;99.90;;;;;;4969779;28;20845;-48
2024/03/16 01:36:35;;;;;;;1.10;0.60;;;13.00;99.90;;;;;;4965946;28;20844;-47
2024/03/16 01:39:05;;;;;;;1.80;0.57;;;13.00;99.90;;;;;;4966853;28;20543;-47
2024/03/16 01:41:33;;;;;;;1.90;0.70;;;13.00;99.90;;;;;;4974304;28;20481;-47
2024/03/16 01:44:10;;;;;;;2.00;1.00;;;13.00;99.90;;;;;;4980713;28;20432;-48
2024/03/16 01:46:39;;;;;;;2.40;0.70;;;13.00;99.90;;;;;;4974691;28;20462;-47
2024/03/16 01:49:08;;;;;;;1.87;0.77;;;13.00;99.90;;;;;;4969672;28;21211;-46
2024/03/16 01:51:37;;;;;;;1.40;0.80;;;13.00;99.90;;;;;;4968509;28;20526;-46
2024/03/16 01:54:05;;;;;;;2.00;0.87;;;13.00;99.90;;;;;;4978805;28;20444;-48
2024/03/16 01:56:34;;;;;;;2.20;0.80;;;13.00;99.90;;;;;;4978779;28;20862;-48
2024/03/16 01:59:02;;;;;;;3.00;0.90;;;13.00;99.90;;;;;;4965994;28;20455;-47
2024/03/16 02:01:31;;;;;;;1.50;0.87;;;13.00;99.90;;;;;;4973077;28;20440;-47
2024/03/16 02:03:59;;;;;;;1.70;0.77;;;13.00;99.90;;;;;;4981574;28;20703;-47
2024/03/16 02:06:28;;;;;;;1.83;0.73;;;13.00;99.90;;;;;;4976500;28;20431;-48
2024/03/16 02:08:57;;;;;;;1.47;0.70;;;13.00;99.90;;;;;;4966293;28;20934;-46
2024/03/16 02:11:25;;;;;;;1.33;0.70;;;13.00;99.90;;;;;;4978686;28;20820;-47
2024/03/16 02:13:53;;;;;;;1.03;0.60;;;13.00;99.90;;;;;;4968033;28;20944;-47
2024/03/16 02:16:21;;;;;;;2.10;0.87;;;13.00;99.90;;;;;;4978237;28;20960;-46
2024/03/16 02:18:50;;;;;;;1.50;0.70;;;13.00;99.90;;;;;;4976691;28;20461;-48
2024/03/16 02:21:18;;;;;;;1.93;0.80;;;13.00;99.90;;;;;;4970442;28;20443;-47
2024/03/16 02:23:48;;;;;;;2.27;0.73;;;13.00;99.90;;;;;;4965371;28;20451;-46
2024/03/16 02:26:16;;;;;;;1.37;0.67;;;13.00;99.90;;;;;;4965543;28;20435;-47
2024/03/16 02:28:44;;;;;;;1.40;0.70;;;13.00;99.90;;;;;;4971163;28;20479;-46
2024/03/16 02:31:13;;;;;;;1.90;1.00;;;13.00;99.90;;;;;;4973101;28;21081;-47
2024/03/16 02:33:42;;;;;;;1.63;0.97;;;12.90;99.90;;;;;;4989821;28;20438;-48
2024/03/16 02:36:10;;;;;;;1.90;0.90;;;12.90;99.90;;;;;;4966144;28;20444;-47
2024/03/16 02:38:40;;;;;;;1.67;0.70;;;12.90;99.90;;;;;;4972099;28;20464;-47
2024/03/16 02:41:08;;;;;;;1.40;0.93;;;12.90;99.90;;;;;;4962661;28;20474;-48
2024/03/16 02:43:36;;;;;;;1.80;1.00;;;12.90;99.90;;;;;;4980623;28;20486;-47
2024/03/16 02:46:05;;;;;;;1.10;0.80;;;12.90;99.90;;;;;;4967753;28;20431;-47
2024/03/16 02:48:33;;;;;;;1.77;0.90;;;12.90;99.90;;;;;;4982900;28;21103;-47
2024/03/16 02:51:01;;;;;;;2.10;0.83;;;12.90;99.90;;;;;;4970347;28;20449;-47
2024/03/16 02:53:29;;;;;;;2.00;0.80;;;12.90;99.90;;;;;;4991410;28;20431;-46
2024/03/16 02:55:58;;;;;;;1.37;0.83;;;12.90;99.90;;;;;;4963214;28;20450;-46
2024/03/16 02:58:26;;;;;;;2.20;0.90;;;12.90;99.90;;;;;;4980014;28;20462;-47
2024/03/16 03:00:54;;;;;;;1.43;0.70;;;12.90;99.90;;;;;;4967446;28;20431;-46
2024/03/16 03:03:24;;;;;;;1.43;1.10;;;12.90;99.90;;;;;;4988181;28;20479;-47
2024/03/16 03:05:53;;;;;;;1.70;0.70;;;12.90;99.90;;;;;;4985311;28;20445;-48
2024/03/16 03:08:21;;;;;;;1.53;0.87;;;12.90;99.90;;;;;;4980275;28;20469;-47
2024/03/16 03:10:49;;;;;;;1.67;0.70;;;12.90;99.90;;;;;;4970504;28;20460;-47
2024/03/16 03:13:17;;;;;;;1.50;0.70;;;12.90;99.90;;;;;;4980315;28;20487;-47
2024/03/16 03:15:49;;;;;;;2.73;0.93;;;12.90;99.90;;;;;;4974302;28;20812;-47
2024/03/16 03:18:17;;;;;;;1.50;0.80;;;12.90;99.90;;;;;;4965461;28;20446;-47
2024/03/16 03:20:45;;;;;;;1.73;1.17;;;12.90;99.90;;;;;;4968168;28;20898;-47
2024/03/16 03:23:14;;;;;;;1.10;0.60;;;12.90;99.90;;;;;;4971492;28;20904;-46
2024/03/16 03:25:42;;;;;;;1.40;0.70;;;12.90;99.90;;;;;;4972723;28;20466;-47
2024/03/16 03:28:10;;;;;;;2.20;0.70;;;12.90;99.90;;;;;;4971434;28;20483;-46
2024/03/16 03:30:38;;;;;;;2.17;1.63;;;12.90;99.90;;;;;;4970976;28;20434;-47
2024/03/16 03:33:07;;;;;;;1.43;0.70;;;12.90;99.90;;;;;;4971385;28;20546;-48
2024/03/16 03:35:35;;;;;;;1.50;0.90;;;12.90;99.90;;;;;;4981689;28;20454;-48
2024/03/16 03:38:03;;;;;;;1.30;0.87;;;12.90;99.90;;;;;;4971502;28;20451;-47
2024/03/16 03:40:31;;;;;;;1.67;0.90;;;12.80;99.90;;;;;;4970148;28;20786;-47
2024/03/16 03:43:00;;;;;;;1.10;0.63;;;12.80;99.90;;;;;;4974372;28;20478;-46
2024/03/16 03:45:37;;;;;;;2.20;1.40;;;12.90;99.90;;;;;;4971328;28;20972;-47
2024/03/16 03:48:24;;;;;;;2.97;0.87;;;12.90;99.90;;;;;;4966592;28;21007;-47
2024/03/16 03:50:53;;;;;;;1.63;0.90;;;12.90;99.90;;;;;;4963865;28;20956;-48
2024/03/16 03:53:21;;;;;;;1.30;0.80;;;12.80;99.90;;;;;;4955318;28;20972;-48
2024/03/16 03:55:49;;;;;;;2.10;0.90;;;12.80;99.90;;;;;;4975801;28;20473;-47
2024/03/16 03:58:18;;;;;;;3.60;1.20;;;12.80;99.90;;;;;;4974459;28;20828;-47
2024/03/16 04:00:46;;;;;;;1.70;1.07;;;12.90;99.90;;;;;;4972850;28;20454;-47
2024/03/16 04:03:14;;;;;;;1.50;0.80;;;12.80;99.90;;;;;;4964077;28;21009;-46
2024/03/16 04:05:42;;;;;;;1.83;0.70;;;12.80;99.90;;;;;;4962894;28;20467;-47
2024/03/16 04:08:11;;;;;;;1.70;0.70;;;12.80;99.90;;;;;;4968065;28;20484;-46
2024/03/16 04:10:39;;;;;;;1.30;0.77;;;12.80;99.90;;;;;;4972902;28;21162;-47
2024/03/16 04:13:07;;;;;;;1.53;0.90;;;12.80;99.90;;;;;;4981365;28;20529;-47
2024/03/16 04:15:35;;;;;;;3.50;0.90;;;12.80;99.90;;;;;;4969458;28;20460;-48
2024/03/16 04:18:04;;;;;;;1.30;0.70;;;12.80;99.90;;;;;;4966146;28;21030;-47
2024/03/16 04:20:33;;;;;;;1.70;0.90;;;12.80;99.90;;;;;;4967849;28;20443;-47
2024/03/16 04:23:01;;;;;;;1.63;0.80;;;12.80;99.90;;;;;;4963701;28;20443;-47
2024/03/16 04:25:29;;;;;;;1.33;0.87;;;12.80;99.90;;;;;;4968503;28;20853;-47
2024/03/16 04:27:57;;;;;;;1.73;1.43;;;12.80;99.90;;;;;;4972741;28;20465;-47
2024/03/16 04:30:26;;;;;;;2.27;1.27;;;12.80;99.90;;;;;;4973522;28;20460;-47
2024/03/16 04:32:54;;;;;;;1.10;0.67;;;12.80;99.90;;;;;;4989377;28;20876;-47
2024/03/16 04:35:23;;;;;;;1.47;0.90;;;12.80;99.90;;;;;;4969685;28;20447;-46
2024/03/16 04:37:51;;;;;;;1.67;0.93;;;12.80;99.90;;;;;;4974342;28;20461;-47
2024/03/16 04:40:20;;;;;;;1.80;0.97;;;12.80;99.90;;;;;;4973288;28;20486;-47
2024/03/16 04:42:48;;;;;;;1.80;1.10;;;12.80;99.90;;;;;;4973308;28;20445;-49
2024/03/16 04:45:17;;;;;;;2.10;1.00;;;12.80;99.90;;;;;;4987432;28;20450;-46
2024/03/16 04:47:45;;;;;;;2.73;1.23;;;12.80;99.90;;;;;;4987196;28;20512;-46
2024/03/16 04:50:15;;;;;;;1.60;1.23;;;12.80;99.90;;;;;;4968993;28;20474;-46
2024/03/16 04:52:43;;;;;;;1.47;0.70;;;12.80;99.90;;;;;;4990040;28;20460;-50
2024/03/16 04:55:11;;;;;;;1.20;0.80;;;12.80;99.90;;;;;;4981455;28;20438;-46
2024/03/16 04:57:40;;;;;;;1.90;1.10;;;12.80;99.90;;;;;;4981671;28;20503;-47
2024/03/16 05:00:11;;;;;;;1.70;1.03;;;12.80;99.90;;;;;;4968438;28;20432;-48
2024/03/16 05:02:40;;;;;;;1.30;0.83;;;12.70;99.90;;;;;;4992339;28;20434;-47
2024/03/16 05:05:09;;;;;;;1.20;0.90;;;12.80;99.90;;;;;;4980103;28;20459;-46
2024/03/16 05:07:37;;;;;;;2.93;1.40;;;12.70;99.90;;;;;;4974031;28;20995;-47
2024/03/16 05:10:05;;;;;;;2.03;1.30;;;12.70;99.90;;;;;;4968329;28;20466;-47
2024/03/16 05:12:34;;;;;;;1.83;0.90;;;12.70;99.90;;;;;;4976017;28;20467;-46
2024/03/16 05:15:02;;;;;;;2.33;1.10;;;12.70;99.90;;;;;;4968790;28;20423;-47
2024/03/16 05:17:31;;;;;;;2.80;0.90;;;12.70;99.90;;;;;;4975415;28;20471;-47
2024/03/16 05:19:59;;;;;;;1.57;1.03;;;12.70;99.90;;;;;;4980944;28;21113;-47
2024/03/16 05:22:29;;;;;;;1.90;1.07;;;12.70;99.90;;;;;;4973686;28;20463;-50
2024/03/16 05:24:58;;;;;;;1.80;1.10;;;12.70;99.90;;;;;;4981372;28;20436;-46
2024/03/16 05:27:27;;;;;;;1.20;0.63;;;12.70;99.90;;;;;;4972826;28;20523;-46
2024/03/16 05:29:55;;;;;;;2.23;1.40;;;12.70;99.90;;;;;;4973002;28;20467;-47
2024/03/16 05:32:24;;;;;;;1.67;1.00;;;12.70;99.90;;;;;;4974431;28;21026;-46
2024/03/16 05:34:52;;;;;;;1.20;0.70;;;12.70;99.90;;;;;;4973815;28;20434;-47
2024/03/16 05:37:20;;;;;;;1.30;0.83;;;12.70;99.90;;;;;;4973847;28;20954;-46
2024/03/16 05:39:49;;;;;;;1.40;1.00;;;12.70;99.90;;;;;;4973359;28;20851;-49
2024/03/16 05:42:17;;;;;;;1.90;1.10;;;12.70;99.90;;;;;;4973659;28;20458;-47
2024/03/16 05:44:45;;;;;;;2.13;0.97;;;12.70;99.90;;;;;;4981603;28;20933;-46
2024/03/16 05:47:13;;;;;;;1.90;0.90;;;12.70;99.90;;;;;;4965568;28;20840;-47
2024/03/16 05:49:42;;;;;;;3.93;0.90;;;12.70;99.90;;;;;;4972986;28;20476;-47
2024/03/16 05:52:10;;;;;;;1.30;0.77;;;12.70;99.90;;;;;;4973280;28;20450;-47
2024/03/16 05:54:38;;;;;;;1.50;1.10;;;12.70;99.90;;;;;;4979075;28;20534;-46
2024/03/16 05:57:07;;;;;;;2.00;1.13;;;12.70;99.90;;;;;;4957062;28;20542;-47
2024/03/16 05:59:35;;;;;;;1.23;0.90;;;12.70;99.90;;;;;;4973072;28;20445;-46
2024/03/16 06:02:03;;;;;;;2.23;1.23;;;12.70;99.90;;;;;;4967675;28;20944;-49
2024/03/16 06:04:31;;;;;;;1.43;0.80;;;12.70;99.90;;;;;;4983605;28;20440;-47
2024/03/16 06:06:59;;;;;;;1.70;0.87;;;12.70;99.90;;;;;;4973232;28;20430;-46
2024/03/16 06:09:28;;;;;;;2.40;1.00;;;12.70;99.90;;;;;;4973997;28;20488;-47
2024/03/16 06:11:56;;;;;;;1.00;0.60;;;12.70;99.90;;;;;;4983241;28;20535;-46
2024/03/16 06:14:24;;;;;;;1.53;0.80;;;12.70;99.90;;;;;;4972762;28;20447;-47
2024/03/16 06:16:53;;;;;;;1.60;0.70;;;12.70;99.90;;;;;;4984763;28;20808;-47
2024/03/16 06:19:21;;;;;;;1.83;0.80;;;12.70;99.90;;;;;;4980419;28;20460;-46
2024/03/16 06:21:50;;;;;;;1.50;1.00;;;12.70;99.90;;;;;;4975767;28;20470;-47
2024/03/16 06:24:19;;;;;;;1.27;0.87;;;12.60;99.90;;;;;;4991586;28;20474;-50
2024/03/16 06:26:52;;;;;;;2.17;1.10;;;12.70;99.90;;;;;;4979006;28;20448;-46
2024/03/16 06:29:25;;;;;;;2.10;1.30;;;12.60;99.90;;;;;;4972450;28;20473;-48
2024/03/16 06:32:04;;;;;;;1.40;0.90;;;12.60;99.90;;;;;;4972673;28;20522;-48
2024/03/16 06:34:33;;;;;;;1.33;0.80;;;12.60;99.90;;;;;;4972966;28;20445;-48
2024/03/16 06:37:02;;;;;;;1.30;0.80;;;12.60;99.90;;;;;;4978904;28;20451;-47
2024/03/16 06:39:31;;;;;;;1.50;1.07;;;12.60;99.90;;;;;;4961691;28;20859;-46
2024/03/16 06:41:59;;;;;;;1.73;1.20;;;12.60;99.90;;;;;;4952359;28;20939;-46
2024/03/16 06:44:27;;;;;;;2.50;1.80;;;12.60;99.90;;;;;;4972421;28;20442;-46
2024/03/16 06:46:56;;;;;;;2.03;1.73;;;12.60;99.90;;;;;;4972908;28;20936;-46
2024/03/16 06:49:24;;;;;;;2.70;1.30;;;12.60;99.90;;;;;;4956409;28;20479;-47
2024/03/16 06:51:52;;;;;;;2.33;1.63;;;12.60;99.90;;;;;;4988123;28;20432;-47
2024/03/16 06:54:20;;;;;;;2.07;1.60;;;12.60;99.90;;;;;;4971617;28;20443;-46
2024/03/16 06:56:49;;;;;;;2.17;1.40;;;12.60;99.90;;;;;;4971311;28;20953;-47
2024/03/16 06:59:17;;;;;;;1.63;1.50;;;12.60;99.90;;;;;;4968610;28;20554;-47
2024/03/16 07:01:45;;;;;;;3.57;1.60;;;12.60;99.90;;;;;;4991611;28;20491;-47
2024/03/16 07:04:15;;;;;;;2.57;1.60;;;12.60;99.90;;;;;;4980685;28;20909;-47
2024/03/16 07:06:44;;;;;;;3.40;1.90;;;12.60;99.90;;;;;;4979353;28;20817;-47
2024/03/16 07:09:13;;;;;;;2.03;1.33;;;12.60;99.90;;;;;;4970809;28;20461;-47
2024/03/16 07:11:42;;;;;;;2.07;1.47;;;12.60;99.90;;;;;;4963428;28;20843;-46
2024/03/16 07:14:15;;;;;;;2.10;1.20;;;12.60;99.90;;;;;;4964490;28;20458;-46
2024/03/16 07:16:43;;;;;;;1.70;1.20;;;12.60;99.90;;;;;;4970349;28;20444;-46
2024/03/16 07:19:12;;;;;;;2.80;1.67;;;12.60;99.90;;;;;;4966301;28;20496;-48
2024/03/16 07:21:40;;;;;;;2.20;1.37;;;12.60;99.90;;;;;;4967404;28;20712;-47
2024/03/16 07:24:09;;;;;;;2.57;1.30;;;12.60;99.90;;;;;;4965473;28;20419;-47
2024/03/16 07:26:37;;;;;;;2.03;1.40;;;12.50;99.90;;;;;;4981313;28;20493;-47
2024/03/16 07:29:06;;;;;;;1.83;1.10;;;12.50;99.90;;;;;;4966183;28;20858;-47
2024/03/16 07:31:34;;;;;;;1.50;1.10;;;12.50;99.90;;;;;;4970626;28;20566;-46
2024/03/16 07:34:03;;;;;;;2.73;1.30;;;12.50;99.90;;;;;;4964199;28;20947;-47
2024/03/16 07:36:31;;;;;;;2.63;1.30;;;12.50;99.90;;;;;;4971031;28;20856;-47
2024/03/16 07:39:00;;;;;;;1.90;1.50;;;12.50;99.90;;;;;;4966405;28;20492;-46
2024/03/16 07:41:28;;;;;;;2.53;1.27;;;12.50;99.90;;;;;;4973609;28;20438;-47
2024/03/16 07:43:56;;;;;;;2.10;1.37;;;12.50;99.90;;;;;;4982240;28;20451;-47
2024/03/16 07:46:24;;;;;;;2.77;1.47;;;12.50;99.90;;;;;;4973973;28;20928;-47
2024/03/16 07:48:53;;;;;;;1.70;1.40;;;12.50;99.90;;;;;;4970457;28;20442;-46
2024/03/16 07:51:24;;;;;;;2.17;1.40;;;12.50;99.90;;;;;;4972164;28;20471;-49
2024/03/16 07:53:53;;;;;;;3.10;1.70;;;12.50;99.90;;;;;;4970526;28;20434;-47
2024/03/16 07:56:21;;;;;;;1.90;1.37;;;12.50;99.90;;;;;;4975086;28;20980;-47
2024/03/16 07:58:49;;;;;;;1.30;1.20;;;12.50;99.90;;;;;;4986112;28;20864;-49
2024/03/16 08:01:17;;;;;;;1.77;1.00;;;12.50;99.90;;;;;;4973383;28;20713;-48
2024/03/16 08:03:46;;;;;;;1.87;1.37;;;12.50;99.90;;;;;;4973842;28;20442;-47
2024/03/16 08:06:14;;;;;;;1.73;1.30;;;12.50;99.90;;;;;;4961195;28;20469;-47
2024/03/16 08:08:43;;;;;;;2.00;1.20;;;12.50;99.90;;;;;;4970733;28;20459;-46
2024/03/16 08:11:12;;;;;;;2.30;1.40;;;12.50;99.90;;;;;;4959568;28;20466;-47
2024/03/16 08:13:40;;;;;;;1.67;1.10;;;12.50;99.90;;;;;;4970681;28;20542;-46
2024/03/16 08:16:09;;;;;;;1.60;0.90;;;12.50;99.90;;;;;;4966234;28;20475;-47
2024/03/16 08:18:37;;;;;;;1.70;1.20;;;12.50;99.90;;;;;;4953270;28;20583;-46
2024/03/16 08:21:05;;;;;;;1.70;1.17;;;12.50;99.90;;;;;;4958708;28;20443;-47
2024/03/16 08:23:36;;;;;;;1.20;0.80;;;12.50;99.90;;;;;;4975878;28;20451;-47
2024/03/16 08:26:05;;;;;;;2.07;1.20;;;12.50;99.90;;;;;;4980726;28;20538;-47
2024/03/16 08:28:34;;;;;;;2.37;1.23;;;12.50;99.90;;;;;;4968433;28;20473;-47
2024/03/16 08:31:03;;;;;;;1.57;1.03;;;12.50;99.90;;;;;;4965352;28;20474;-47
2024/03/16 08:33:32;;;;;;;1.40;1.00;;;12.50;99.90;;;;;;4975037;28;20461;-50
2024/03/16 08:36:00;;;;;;;1.67;1.20;;;12.50;99.90;;;;;;4964086;28;20447;-47
2024/03/16 08:38:30;;;;;;;2.00;1.40;;;12.50;99.90;;;;;;4975412;28;20470;-50
2024/03/16 08:40:58;;;;;;;1.97;1.20;;;12.50;99.90;;;;;;4973426;28;20531;-46
2024/03/16 08:43:27;;;;;;;1.93;1.50;;;12.50;99.90;;;;;;4970758;28;20482;-47
2024/03/16 08:45:56;;;;;;;7.33;1.90;;;12.50;99.90;;;;;;4973398;28;20435;-46
2024/03/16 08:48:24;;;;;;;1.90;1.50;;;12.40;99.90;;;;;;4970719;28;20884;-47
2024/03/16 08:50:52;;;;;;;3.40;1.60;;;12.50;99.90;;;;;;4969842;28;20474;-48
2024/03/16 08:53:21;;;;;;;2.13;1.40;;;12.40;99.90;;;;;;4974475;28;20481;-47
2024/03/16 08:55:49;;;;;;;1.80;1.50;;;12.50;99.90;;;;;;4970092;28;20497;-48
2024/03/16 08:58:17;;;;;;;1.87;1.40;;;12.40;99.90;;;;;;4970269;28;20499;-47
2024/03/16 09:00:46;;;;;;;1.63;1.20;;;12.50;99.90;;;;;;4971923;28;20858;-47
2024/03/16 09:03:14;;;;;;;2.50;1.40;;;12.40;99.90;;;;;;4965106;28;20426;-46
2024/03/16 09:05:42;;;;;;;1.50;1.27;;;12.40;99.90;;;;;;4982153;28;20427;-47
2024/03/16 09:08:11;;;;;;;1.90;1.50;;;12.40;99.90;;;;;;4962957;28;20991;-48
2024/03/16 09:10:39;;;;;;;2.30;1.50;;;12.40;99.90;;;;;;4972071;28;20466;-47
2024/03/16 09:13:07;;;;;;;3.20;1.20;;;12.40;99.90;;;;;;4973320;28;20431;-47
2024/03/16 09:15:36;;;;;;;2.20;1.23;;;12.50;99.90;;;;;;4966072;28;20496;-46
2024/03/16 09:18:04;;;;;;;1.33;0.83;;;12.40;99.90;;;;;;4964521;28;20477;-47
2024/03/16 09:20:33;;;;;;;2.17;1.10;;;12.50;99.90;;;;;;4969572;28;20439;-49
2024/03/16 09:23:02;;;;;;;1.97;1.40;;;12.40;99.90;;;;;;4967161;28;20918;-47
2024/03/16 09:25:30;;;;;;;1.70;0.90;;;12.50;99.90;;;;;;4969848;28;20427;-50
2024/03/16 09:27:58;;;;;;;2.03;1.43;;;12.40;99.90;;;;;;4974805;28;20463;-46
2024/03/16 09:30:27;;;;;;;1.50;1.10;;;12.40;99.90;;;;;;4968824;28;20439;-48
2024/03/16 09:32:55;;;;;;;1.80;1.20;;;12.40;99.90;;;;;;4967701;28;20427;-47
2024/03/16 09:35:23;;;;;;;1.20;0.80;;;12.40;99.90;;;;;;4970780;28;20537;-48
2024/03/16 09:37:51;;;;;;;2.13;1.00;;;12.40;99.90;;;;;;4970544;28;20517;-46
2024/03/16 09:40:20;;;;;;;2.53;1.40;;;12.40;99.90;;;;;;4968992;28;20461;-47
2024/03/16 09:42:48;;;;;;;1.90;1.20;;;12.40;99.90;;;;;;4980209;28;20446;-46
2024/03/16 09:45:17;;;;;;;1.20;0.90;;;12.40;99.90;;;;;;4967669;28;20938;-47
2024/03/16 09:47:44;;;;;;;1.37;1.10;;;12.40;99.90;;;;;;4970613;28;20486;-47
2024/03/16 09:50:13;;;;;;;2.00;1.43;;;12.40;99.90;;;;;;4968115;28;20504;-47
2024/03/16 09:52:40;;;;;;;3.20;1.63;;;12.40;99.90;;;;;;4979213;28;20888;-47
2024/03/16 09:55:09;;;;;;;1.83;1.50;;;12.40;99.90;;;;;;4969251;28;20435;-46
2024/03/16 09:57:38;;;;;;;1.97;1.23;;;12.50;99.90;;;;;;4956669;28;20550;-46
2024/03/16 10:00:06;;;;;;;2.13;0.97;;;12.50;99.90;;;;;;4967247;28;20466;-48
2024/03/16 10:02:39;;;;;;;1.87;0.90;;;12.40;99.90;;;;;;4957295;28;20462;-47
2024/03/16 10:05:08;;;;;;;1.50;1.27;;;12.40;99.90;;;;;;4968193;28;20458;-47
2024/03/16 10:07:36;;;;;;;1.77;1.17;;;12.40;99.90;;;;;;4953411;28;20956;-47
2024/03/16 10:10:04;;;;;;;1.87;1.17;;;12.40;99.90;;;;;;4978864;28;21175;-47
2024/03/16 10:12:31;;;;;;;3.00;1.30;;;12.40;99.90;;;;;;4969426;28;20541;-47
2024/03/16 10:15:16;;;;;;;2.20;1.10;;;12.40;99.90;;;;;;4973051;28;20488;-47
2024/03/16 10:17:43;;;;;;;1.70;0.90;;;12.40;99.90;;;;;;4972308;28;20477;-48
2024/03/16 10:20:15;;;;;;;2.50;1.10;;;12.40;99.90;;;;;;4957011;28;20430;-46
2024/03/16 10:22:44;;;;;;;2.70;1.10;;;12.40;99.90;;;;;;4970872;28;20545;-47
2024/03/16 10:25:11;;;;;;;1.40;1.00;;;12.40;99.90;;;;;;4968396;28;20482;-49
2024/03/16 10:27:39;;;;;;;1.80;0.70;;;12.40;99.90;;;;;;4958702;28;20562;-47
2024/03/16 10:30:10;;;;;;;1.50;1.03;;;12.40;99.90;;;;;;4974311;28;20442;-47
2024/03/16 10:32:38;;;;;;;1.23;0.90;;;12.30;99.90;;;;;;4974390;28;20918;-48
2024/03/16 10:35:08;;;;;;;1.30;0.90;;;12.30;99.90;;;;;;4954755;28;20458;-47
2024/03/16 10:37:38;;;;;;;1.93;1.00;;;12.40;99.90;;;;;;4968993;28;20455;-46
2024/03/16 10:40:13;;;;;;;3.73;1.10;;;12.40;99.90;;;;;;4967345;28;20431;-46
2024/03/16 10:42:44;;;;;;;1.30;0.93;;;12.30;99.90;;;;;;4971424;28;20967;-47
2024/03/16 10:45:16;;;;;;;1.30;0.73;;;12.30;99.90;;;;;;4975877;28;20447;-46
2024/03/16 10:47:44;;;;;;;1.30;0.70;;;12.30;99.90;;;;;;4958831;28;20915;-46
2024/03/16 10:50:12;;;;;;;1.77;0.90;;;12.30;99.90;;;;;;4970542;28;20447;-47
2024/03/16 10:52:41;;;;;;;1.77;1.00;;;12.30;99.90;;;;;;4970043;28;20477;-47
2024/03/16 10:55:11;;;;;;;1.87;0.90;;;12.30;99.90;;;;;;4973479;28;20533;-49
2024/03/16 10:57:38;;;;;;;1.70;1.20;;;12.30;99.90;;;;;;4961366;28;20466;-47
2024/03/16 11:00:12;;;;;;;2.00;1.07;;;12.30;99.90;;;;;;4974596;28;20851;-46
2024/03/16 11:02:49;;;;;;;1.87;0.90;;;12.30;99.90;;;;;;4944201;28;20439;-47
2024/03/16 11:05:39;;;;;;;1.93;0.90;;;12.30;99.90;;;;;;4981429;28;20451;-47
2024/03/16 11:08:23;;;;;;;1.30;0.83;;;12.30;99.90;;;;;;4960072;28;20499;-48
2024/03/16 11:10:52;;;;;;;1.50;0.87;;;12.40;99.90;;;;;;4968192;28;20971;-47
2024/03/16 11:13:20;;;;;;;1.57;0.90;;;12.30;99.90;;;;;;4966331;28;20474;-47
2024/03/16 11:15:47;;;;;;;1.60;0.80;;;12.30;99.90;;;;;;4965635;28;20442;-48
2024/03/16 11:18:52;;;;;;;1.20;0.90;;;12.30;99.90;;;;;;4970586;28;20466;-48
2024/03/16 11:21:22;;;;;;;1.63;1.00;;;12.40;99.90;;;;;;4978538;28;20884;-47
2024/03/16 11:23:49;;;;;;;1.43;0.90;;;12.40;99.90;;;;;;4970800;28;20704;-47
2024/03/16 11:26:39;;;;;;;1.20;0.70;;;12.40;99.90;;;;;;4958165;28;20447;-47
2024/03/16 11:29:09;;;;;;;1.40;0.90;;;12.40;99.90;;;;;;4947136;28;21074;-48
2024/03/16 11:31:39;;;;;;;1.77;1.10;;;12.40;99.90;;;;;;4964162;28;20450;-46
2024/03/16 11:34:08;;;;;;;1.33;0.83;;;12.40;99.90;;;;;;4970921;28;20517;-47
2024/03/16 11:36:37;;;;;;;2.43;1.00;;;12.40;99.90;;;;;;4978979;28;20446;-47
2024/03/16 11:39:16;;;;;;;1.60;0.90;;;12.40;99.90;;;;;;4969886;28;20458;-48
2024/03/16 11:41:43;;;;;;;2.10;0.83;;;12.30;99.90;;;;;;4969219;28;21006;-47
2024/03/16 11:44:12;;;;;;;1.77;0.90;;;12.40;99.90;;;;;;4953370;28;20486;-47
2024/03/16 11:46:39;;;;;;;1.83;1.13;;;12.40;99.90;;;;;;4971762;28;20495;-46
2024/03/16 11:49:09;;;;;;;1.93;1.00;;;12.40;99.90;;;;;;4967264;28;20856;-46
2024/03/16 11:51:36;;;;;;;1.67;0.73;;;12.40;99.90;;;;;;4955033;28;20825;-47
2024/03/16 11:54:04;;;;;;;2.50;1.03;;;12.40;99.90;;;;;;4967310;28;20995;-49
2024/03/16 11:56:32;;;;;;;1.40;1.20;;;12.40;99.90;;;;;;4965383;28;20522;-47
2024/03/16 11:59:01;;;;;;;1.53;0.93;;;12.40;99.90;;;;;;4970115;28;20535;-47
2024/03/16 12:01:30;;;;;;;1.63;1.17;;;12.40;99.90;;;;;;4954474;28;20471;-46
2024/03/16 12:03:56;;;;;;;1.63;0.90;;;12.40;99.90;;;;;;4976733;28;20431;-47
2024/03/16 12:06:24;;;;;;;1.90;1.00;;;12.40;99.90;;;;;;4970756;28;20534;-46
2024/03/16 12:08:50;;;;;;;1.90;1.10;;;12.40;99.90;;;;;;4987021;28;20549;-47
2024/03/16 12:11:18;;;;;;;1.40;0.87;;;12.30;99.90;;;;;;4972721;28;20543;-47
2024/03/16 12:13:46;;;;;;;1.83;1.00;;;12.30;99.90;;;;;;4954267;28;20529;-47
2024/03/16 12:16:14;;;;;;;1.50;1.03;;;12.30;99.90;;;;;;4950923;28;21088;-47
2024/03/16 12:18:40;;;;;;;1.33;0.80;;;12.30;99.90;;;;;;4963681;28;20494;-47
2024/03/16 12:21:09;;;;;;;1.40;0.70;;;12.30;99.90;;;;;;4953342;28;20493;-48
2024/03/16 12:23:38;;;;;;;2.00;0.90;;;12.30;99.90;;;;;;4968936;28;20584;-48
2024/03/16 12:26:09;;;;;;;1.77;1.00;;;12.30;99.90;;;;;;4949524;28;20475;-47
2024/03/16 12:28:36;;;;;;;1.87;1.03;;;12.30;99.90;;;;;;4961523;28;20553;-47
2024/03/16 12:31:04;;;;;;;1.50;1.27;;;12.30;99.90;;;;;;4951643;28;20464;-48
2024/03/16 12:33:31;;;;;;;1.30;0.83;;;12.30;99.90;;;;;;4962228;28;20562;-46
2024/03/16 12:35:59;;;;;;;1.63;0.97;;;12.30;99.90;;;;;;4975412;28;20431;-46
2024/03/16 12:38:25;;;;;;;1.27;0.90;;;12.30;99.90;;;;;;4963257;28;20913;-47
2024/03/16 12:40:53;;;;;;;1.10;0.73;;;12.30;99.90;;;;;;4953743;28;20544;-46
2024/03/16 12:43:20;;;;;;;2.33;1.00;;;12.30;99.90;;;;;;4952059;28;20432;-46
2024/03/16 12:45:47;;;;;;;1.50;0.80;;;12.30;99.90;;;;;;4953247;28;20521;-47
2024/03/16 12:48:13;;;;;;;2.20;1.33;;;12.30;99.90;;;;;;4961587;28;20462;-48
2024/03/16 12:50:40;;;;;;;1.27;0.80;;;12.30;99.90;;;;;;4969701;28;20426;-47
2024/03/16 12:53:07;;;;;;;2.63;0.80;;;12.30;99.90;;;;;;4966806;28;20545;-46
2024/03/16 12:55:36;;;;;;;1.50;0.80;;;12.30;99.90;;;;;;4958788;28;20454;-47